createdAt,value
2018-10-16T00:00:58.449Z,96262.10
2018-10-16T00:03:26.999Z,96260.47
2018-10-16T00:05:55.409Z,96261.14
2018-10-16T00:08:23.769Z,96264.77
2018-10-16T00:10:52.249Z,96269.38
2018-10-16T00:13:20.636Z,96263.42
2018-10-16T00:15:49.216Z,96260.53
2018-10-16T00:18:17.629Z,96267.16
2018-10-16T00:20:46.097Z,96267.33
2018-10-16T00:23:14.454Z,96263.69
2018-10-16T00:25:42.867Z,96260.75
2018-10-16T00:28:11.253Z,96264.03
2018-10-16T00:30:40.121Z,96263.66
2018-10-16T00:33:08.666Z,96261.80
2018-10-16T00:35:37.077Z,96265.88
2018-10-16T00:38:05.659Z,96265.78
2018-10-16T00:40:34.092Z,96262.78
2018-10-16T00:43:03.097Z,96260.75
2018-10-16T00:45:31.589Z,96262.89
2018-10-16T00:47:59.887Z,96257.08
2018-10-16T00:53:01.941Z,96257.38
2018-10-16T00:55:30.263Z,96266.31
2018-10-16T00:57:58.639Z,96260.70
2018-10-16T01:00:27.208Z,96262.15
2018-10-16T01:02:55.492Z,96262.86
2018-10-16T01:05:23.779Z,96264.81
2018-10-16T01:07:52.339Z,96264.81
2018-10-16T01:10:20.626Z,96264.81
2018-10-16T01:12:49.030Z,96267.09
2018-10-16T01:15:17.411Z,96269.67
2018-10-16T01:17:45.874Z,96271.48
2018-10-16T01:20:14.758Z,96270.59
2018-10-16T01:22:43.765Z,96269.88
2018-10-16T01:25:12.990Z,96264.55
2018-10-16T01:27:41.466Z,96263.84
2018-10-16T01:30:10.135Z,96261.69
2018-10-16T01:32:39.029Z,96256.06
2018-10-16T01:35:09.166Z,96268.55
2018-10-16T01:37:37.614Z,96266.92
2018-10-16T01:40:07.764Z,96265.97
2018-10-16T01:42:36.183Z,96265.67
2018-10-16T01:45:04.665Z,96265.44
2018-10-16T01:47:33.148Z,96278.94
2018-10-16T01:50:01.522Z,96268.80
2018-10-16T01:52:29.932Z,96270.22
2018-10-16T01:54:58.400Z,96265.91
2018-10-16T01:57:26.844Z,96263.52
2018-10-16T01:59:55.245Z,96271.64
2018-10-16T02:02:23.622Z,96273.23
2018-10-16T02:04:52.272Z,96280.38
2018-10-16T02:07:27.061Z,96281.09
2018-10-16T02:09:55.424Z,96282.16
2018-10-16T02:12:23.873Z,96286.68
2018-10-16T02:14:52.306Z,96286.05
2018-10-16T02:17:20.740Z,96288.78
2018-10-16T02:19:49.002Z,96292.55
2018-10-16T02:22:17.552Z,96292.03
2018-10-16T02:24:45.910Z,96292.66
2018-10-16T02:27:14.294Z,96295.88
2018-10-16T02:29:42.682Z,96296.91
2018-10-16T02:32:10.971Z,96300.97
2018-10-16T02:34:39.358Z,96301.86
2018-10-16T02:37:08.528Z,96307.00
2018-10-16T02:39:36.903Z,96298.36
2018-10-16T02:42:05.624Z,96306.45
2018-10-16T02:44:34.006Z,96313.17
2018-10-16T02:47:02.426Z,96312.25
2018-10-16T02:49:30.719Z,96311.91
2018-10-16T02:51:59.022Z,96318.38
2018-10-16T02:54:27.370Z,96319.59
2018-10-16T02:56:55.650Z,96327.81
2018-10-16T02:59:24.058Z,96315.65
2018-10-16T03:01:52.422Z,96317.73
2018-10-16T03:04:20.877Z,96326.84
2018-10-16T03:06:49.359Z,96328.38
2018-10-16T03:09:17.639Z,96335.12
2018-10-16T03:11:46.035Z,96334.20
2018-10-16T03:14:14.551Z,96330.94
2018-10-16T03:16:42.862Z,96329.90
2018-10-16T03:19:11.141Z,96333.70
2018-10-16T03:21:39.555Z,96342.57
2018-10-16T03:24:08.610Z,96344.81
2018-10-16T03:26:37.251Z,96343.09
2018-10-16T03:29:05.867Z,96352.77
2018-10-16T03:31:34.169Z,96355.22
2018-10-16T03:34:03.691Z,96354.16
2018-10-16T03:36:32.092Z,96352.97
2018-10-16T03:39:00.372Z,96355.11
2018-10-16T03:41:28.693Z,96356.61
2018-10-16T03:43:59.568Z,96360.84
2018-10-16T03:46:28.125Z,96363.88
2018-10-16T03:48:56.694Z,96363.66
2018-10-16T03:51:26.235Z,96370.02
2018-10-16T03:53:56.215Z,96371.09
2018-10-16T03:56:25.059Z,96368.64
2018-10-16T03:58:53.447Z,96368.20
2018-10-16T04:01:22.477Z,96370.06
2018-10-16T04:03:50.823Z,96377.89
2018-10-16T04:06:19.363Z,96376.81
2018-10-16T04:08:47.975Z,96380.28
2018-10-16T04:11:16.293Z,96387.74
2018-10-16T04:13:44.635Z,96381.91
2018-10-16T04:16:12.927Z,96385.84
2018-10-16T04:18:41.295Z,96380.80
2018-10-16T04:21:10.511Z,96378.83
2018-10-16T04:23:39.781Z,96380.63
2018-10-16T04:26:08.507Z,96383.91
2018-10-16T04:28:36.847Z,96385.26
2018-10-16T04:31:05.461Z,96388.95
2018-10-16T04:33:33.765Z,96393.74
2018-10-16T04:36:02.183Z,96393.38
2018-10-16T04:38:31.103Z,96388.75
2018-10-16T04:40:59.406Z,96386.36
2018-10-16T04:43:27.718Z,96387.28
2018-10-16T04:45:56.160Z,96386.56
2018-10-16T04:48:24.634Z,96386.16
2018-10-16T04:50:52.949Z,96388.47
2018-10-16T04:53:21.327Z,96384.28
2018-10-16T04:55:49.706Z,96390.20
2018-10-16T04:58:18.111Z,96389.13
2018-10-16T05:00:46.409Z,96393.89
2018-10-16T05:03:14.817Z,96390.69
2018-10-16T05:05:43.149Z,96400.78
2018-10-16T05:08:11.459Z,96398.39
2018-10-16T05:10:39.764Z,96398.18
2018-10-16T05:13:08.262Z,96404.42
2018-10-16T05:15:36.629Z,96400.23
2018-10-16T05:18:04.996Z,96399.55
2018-10-16T05:20:33.305Z,96399.37
2018-10-16T05:23:01.801Z,96406.47
2018-10-16T05:25:30.921Z,96410.55
2018-10-16T05:27:59.327Z,96416.66
2018-10-16T05:30:27.957Z,96415.75
2018-10-16T05:32:56.297Z,96425.08
2018-10-16T05:35:25.220Z,96417.01
2018-10-16T05:37:53.505Z,96431.09
2018-10-16T05:40:21.843Z,96431.39
2018-10-16T05:42:50.253Z,96434.97
2018-10-16T05:45:19.273Z,96435.19
2018-10-16T05:47:47.639Z,96440.33
2018-10-16T05:50:16.017Z,96445.29
2018-10-16T05:52:44.307Z,96442.81
2018-10-16T05:55:12.647Z,96446.62
2018-10-16T05:57:41.067Z,96452.62
2018-10-16T06:00:20.509Z,96450.73
2018-10-16T06:02:48.947Z,96460.16
2018-10-16T06:05:17.323Z,96458.33
2018-10-16T06:07:45.687Z,96459.10
2018-10-16T06:10:14.429Z,96458.83
2018-10-16T06:12:42.815Z,96464.20
2018-10-16T06:15:11.915Z,96474.78
2018-10-16T06:17:40.266Z,96479.41
2018-10-16T06:20:11.642Z,96481.73
2018-10-16T06:22:40.137Z,96482.06
2018-10-16T06:25:09.448Z,96487.33
2018-10-16T06:27:38.128Z,96488.43
2018-10-16T06:30:06.901Z,96488.89
2018-10-16T06:32:35.464Z,96496.59
2018-10-16T06:35:03.902Z,96497.22
2018-10-16T06:37:32.633Z,96500.31
2018-10-16T06:40:01.208Z,96507.13
2018-10-16T06:42:29.582Z,96504.77
2018-10-16T06:44:57.978Z,96505.86
2018-10-16T06:47:27.068Z,96510.92
2018-10-16T06:49:55.156Z,96513.97
2018-10-16T06:52:23.454Z,96514.56
2018-10-16T06:54:52.102Z,96520.63
2018-10-16T06:57:20.487Z,96515.05
2018-10-16T06:59:48.841Z,96523.07
2018-10-16T07:02:17.174Z,96522.72
2018-10-16T07:04:46.034Z,96530.46
2018-10-16T07:07:14.508Z,96532.20
2018-10-16T07:09:42.745Z,96531.79
2018-10-16T07:12:11.190Z,96534.23
2018-10-16T07:14:39.578Z,96532.55
2018-10-16T07:17:08.075Z,96529.95
2018-10-16T07:19:36.392Z,96529.48
2018-10-16T07:22:08.023Z,96530.45
2018-10-16T07:24:36.366Z,96520.34
2018-10-16T07:27:04.954Z,96522.39
2018-10-16T07:29:33.284Z,96522.72
2018-10-16T07:32:01.639Z,96520.55
2018-10-16T07:34:29.983Z,96526.91
2018-10-16T07:36:58.354Z,96523.66
2018-10-16T07:39:26.862Z,96532.10
2018-10-16T07:41:55.431Z,96528.30
2018-10-16T07:44:23.986Z,96531.00
2018-10-16T07:46:52.278Z,96533.22
2018-10-16T07:49:20.667Z,96532.87
2018-10-16T07:51:48.966Z,96529.36
2018-10-16T07:54:17.405Z,96535.16
2018-10-16T07:56:45.794Z,96537.21
2018-10-16T07:59:14.177Z,96538.41
2018-10-16T08:01:42.583Z,96537.86
2018-10-16T08:04:10.946Z,96541.31
2018-10-16T08:06:40.255Z,96535.94
2018-10-16T08:09:12.602Z,96535.86
2018-10-16T08:11:46.034Z,96537.64
2018-10-16T08:14:15.576Z,96541.30
2018-10-16T08:16:44.987Z,96535.63
2018-10-16T08:19:13.775Z,96531.30
2018-10-16T08:21:42.374Z,96533.20
2018-10-16T08:24:10.723Z,96538.87
2018-10-16T08:26:39.420Z,96539.16
2018-10-16T08:29:08.601Z,96536.92
2018-10-16T08:31:37.075Z,96546.98
2018-10-16T08:34:06.029Z,96540.92
2018-10-16T08:36:34.611Z,96538.19
2018-10-16T08:39:10.106Z,96547.83
2018-10-16T08:41:55.886Z,96527.27
2018-10-16T08:44:39.498Z,96531.83
2018-10-16T08:47:19.106Z,96530.49
2018-10-16T08:49:59.301Z,96536.09
2018-10-16T08:52:27.670Z,96536.81
2018-10-16T08:54:56.085Z,96534.03
2018-10-16T08:57:24.409Z,96532.72
2018-10-16T08:59:52.780Z,96524.69
2018-10-16T09:02:21.162Z,96516.66
2018-10-16T09:04:49.515Z,96533.73
2018-10-16T09:07:17.956Z,96531.47
2018-10-16T09:09:46.283Z,96527.06
2018-10-16T09:12:14.638Z,96532.39
2018-10-16T09:14:43.101Z,96527.06
2018-10-16T09:17:11.506Z,96531.14
2018-10-16T09:19:39.898Z,96534.96
2018-10-16T09:22:08.302Z,96531.24
2018-10-16T09:24:36.685Z,96541.52
2018-10-16T09:27:05.242Z,96539.63
2018-10-16T09:29:33.746Z,96540.47
2018-10-16T09:32:02.143Z,96544.69
2018-10-16T09:34:30.416Z,96543.03
2018-10-16T09:36:58.791Z,96540.64
2018-10-16T09:39:27.139Z,96540.52
2018-10-16T09:41:55.402Z,96535.20
2018-10-16T09:44:23.998Z,96541.24
2018-10-16T09:46:52.442Z,96547.41
2018-10-16T09:49:20.835Z,96533.55
2018-10-16T09:51:49.138Z,96532.69
2018-10-16T09:54:17.422Z,96533.27
2018-10-16T09:56:45.729Z,96534.34
2018-10-16T09:59:14.103Z,96527.09
2018-10-16T10:01:52.632Z,96527.89
2018-10-16T10:04:21.171Z,96531.06
2018-10-16T10:06:50.655Z,96532.63
2018-10-16T10:09:19.043Z,96526.11
2018-10-16T10:11:47.855Z,96536.21
2018-10-16T10:14:16.311Z,96536.77
2018-10-16T10:16:44.683Z,96533.87
2018-10-16T10:19:13.018Z,96529.45
2018-10-16T10:21:41.347Z,96525.73
2018-10-16T10:24:09.735Z,96530.70
2018-10-16T10:26:38.142Z,96529.90
2018-10-16T10:29:06.466Z,96533.09
2018-10-16T10:31:34.882Z,96532.23
2018-10-16T10:34:03.390Z,96529.45
2018-10-16T10:36:31.666Z,96529.24
2018-10-16T10:39:00.022Z,96526.74
2018-10-16T10:41:28.486Z,96516.46
2018-10-16T10:43:56.862Z,96512.39
2018-10-16T10:46:25.334Z,96522.38
2018-10-16T10:48:53.941Z,96521.02
2018-10-16T10:51:22.665Z,96516.20
2018-10-16T10:53:50.770Z,96509.14
2018-10-16T10:56:19.085Z,96512.31
2018-10-16T10:58:47.437Z,96507.12
2018-10-16T11:01:15.743Z,96508.44
2018-10-16T11:03:44.208Z,96495.94
2018-10-16T11:06:12.570Z,96496.41
2018-10-16T11:08:41.018Z,96500.34
2018-10-16T11:11:09.450Z,96494.34
2018-10-16T11:13:37.798Z,96496.91
2018-10-16T11:16:06.204Z,96493.27
2018-10-16T11:18:34.777Z,96492.44
2018-10-16T11:21:03.209Z,96489.84
2018-10-16T11:23:31.522Z,96488.98
2018-10-16T11:25:59.958Z,96486.73
2018-10-16T11:28:28.394Z,96487.02
2018-10-16T11:30:56.771Z,96483.91
2018-10-16T11:33:25.102Z,96480.30
2018-10-16T11:35:53.402Z,96482.03
2018-10-16T11:38:21.794Z,96483.30
2018-10-16T11:40:50.218Z,96483.19
2018-10-16T11:43:18.574Z,96476.28
2018-10-16T11:45:47.093Z,96474.02
2018-10-16T11:48:15.720Z,96480.70
2018-10-16T11:50:44.306Z,96469.48
2018-10-16T11:53:12.593Z,96473.47
2018-10-16T11:55:40.962Z,96468.48
2018-10-16T11:58:09.362Z,96467.13
2018-10-16T12:00:37.654Z,96477.75
2018-10-16T12:03:06.048Z,96473.60
2018-10-16T12:05:34.459Z,96473.06
2018-10-16T12:08:02.878Z,96474.98
2018-10-16T12:10:31.371Z,96477.72
2018-10-16T12:12:59.767Z,96474.55
2018-10-16T12:15:28.172Z,96472.72
2018-10-16T12:18:13.911Z,96472.81
2018-10-16T12:20:51.697Z,96469.55
2018-10-16T12:23:20.170Z,96462.38
2018-10-16T12:25:48.516Z,96470.13
2018-10-16T12:28:16.910Z,96460.78
2018-10-16T12:30:45.489Z,96459.48
2018-10-16T12:33:13.878Z,96457.63
2018-10-16T12:35:42.243Z,96458.46
2018-10-16T12:38:10.546Z,96455.03
2018-10-16T12:40:38.893Z,96453.47
2018-10-16T12:43:07.221Z,96452.17
2018-10-16T12:45:35.606Z,96443.84
2018-10-16T12:48:03.984Z,96447.41
2018-10-16T12:50:32.338Z,96444.73
2018-10-16T12:53:00.839Z,96444.27
2018-10-16T12:55:29.071Z,96446.17
2018-10-16T12:57:57.461Z,96442.68
2018-10-16T13:00:26.341Z,96449.02
2018-10-16T13:02:54.714Z,96449.73
2018-10-16T13:05:23.062Z,96441.73
2018-10-16T13:07:51.400Z,96442.05
2018-10-16T13:10:19.925Z,96447.20
2018-10-16T13:12:48.407Z,96449.63
2018-10-16T13:15:17.373Z,96450.23
2018-10-16T13:17:45.716Z,96447.80
2018-10-16T13:20:15.137Z,96448.36
2018-10-16T13:22:45.169Z,96446.78
2018-10-16T13:25:15.271Z,96446.78
2018-10-16T13:27:43.810Z,96443.58
2018-10-16T13:30:18.255Z,96439.82
2018-10-16T13:32:47.423Z,96443.64
2018-10-16T13:35:17.091Z,96444.77
2018-10-16T13:37:46.260Z,96444.23
2018-10-16T13:40:14.917Z,96438.04
2018-10-16T13:42:43.387Z,96443.54
2018-10-16T13:45:13.083Z,96444.09
2018-10-16T13:47:41.417Z,96441.69
2018-10-16T13:50:12.811Z,96438.70
2018-10-16T13:52:41.447Z,96436.30
2018-10-16T13:55:10.567Z,96437.94
2018-10-16T13:57:38.916Z,96439.30
2018-10-16T14:00:13.406Z,96431.44
2018-10-16T14:02:42.663Z,96439.31
2018-10-16T14:05:10.955Z,96437.16
2018-10-16T14:07:39.499Z,96432.30
2018-10-16T14:10:09.719Z,96432.55
2018-10-16T14:12:38.895Z,96433.90
2018-10-16T14:15:07.861Z,96432.25
2018-10-16T14:17:36.449Z,96433.90
2018-10-16T14:20:05.214Z,96433.60
2018-10-16T14:22:33.754Z,96436.05
2018-10-16T14:25:02.155Z,96438.19
2018-10-16T14:27:30.540Z,96433.58
2018-10-16T14:29:59.034Z,96437.65
2018-10-16T14:32:27.322Z,96436.30
2018-10-16T14:34:55.610Z,96431.12
2018-10-16T14:37:24.136Z,96434.92
2018-10-16T14:39:52.409Z,96436.78
2018-10-16T14:42:20.842Z,96433.98
2018-10-16T14:44:49.366Z,96437.16
2018-10-16T14:47:17.837Z,96437.86
2018-10-16T14:49:46.223Z,96440.48
2018-10-16T14:52:14.880Z,96441.74
2018-10-16T14:54:43.110Z,96444.66
2018-10-16T14:57:11.458Z,96440.75
2018-10-16T14:59:40.047Z,96449.02
2018-10-16T15:02:08.391Z,96445.97
2018-10-16T15:04:36.790Z,96446.17
2018-10-16T15:07:05.334Z,96447.95
2018-10-16T15:09:33.600Z,96441.09
2018-10-16T15:12:01.922Z,96438.86
2018-10-16T15:14:30.326Z,96438.19
2018-10-16T15:16:58.605Z,96439.64
2018-10-16T15:19:26.881Z,96443.27
2018-10-16T15:21:55.307Z,96438.60
2018-10-16T15:24:23.572Z,96437.97
2018-10-16T15:26:52.310Z,96436.50
2018-10-16T15:29:20.626Z,96438.60
2018-10-16T15:31:48.961Z,96435.21
2018-10-16T15:34:17.510Z,96442.16
2018-10-16T15:36:45.838Z,96441.86
2018-10-16T15:39:20.670Z,96443.42
2018-10-16T15:41:49.164Z,96442.00
2018-10-16T15:44:17.506Z,96435.70
2018-10-16T15:46:45.910Z,96440.19
2018-10-16T15:49:14.430Z,96442.22
2018-10-16T15:51:50.106Z,96443.73
2018-10-16T15:54:18.609Z,96441.13
2018-10-16T15:56:46.958Z,96446.92
2018-10-16T15:59:15.238Z,96450.83
2018-10-16T16:01:43.707Z,96459.34
2018-10-16T16:04:12.956Z,96456.23
2018-10-16T16:06:41.375Z,96459.82
2018-10-16T16:09:09.767Z,96462.90
2018-10-16T16:11:38.055Z,96456.55
2018-10-16T16:14:06.399Z,96462.58
2018-10-16T16:16:34.766Z,96463.91
2018-10-16T16:19:03.602Z,96457.77
2018-10-16T16:21:31.985Z,96464.61
2018-10-16T16:24:00.545Z,96467.25
2018-10-16T16:26:28.798Z,96475.57
2018-10-16T16:28:57.115Z,96469.50
2018-10-16T16:31:25.779Z,96475.70
2018-10-16T16:33:54.082Z,96470.88
2018-10-16T16:36:22.511Z,96478.99
2018-10-16T16:38:50.874Z,96476.57
2018-10-16T16:41:19.227Z,96484.12
2018-10-16T16:43:47.668Z,96480.89
2018-10-16T16:46:16.033Z,96479.33
2018-10-16T16:48:44.364Z,96489.84
2018-10-16T16:51:12.740Z,96486.56
2018-10-16T16:53:41.132Z,96490.33
2018-10-16T16:56:09.602Z,96485.05
2018-10-16T16:58:37.895Z,96497.70
2018-10-16T17:01:06.251Z,96495.31
2018-10-16T17:03:34.538Z,96495.95
2018-10-16T17:06:02.924Z,96496.63
2018-10-16T17:08:31.323Z,96495.89
2018-10-16T17:10:59.631Z,96502.91
2018-10-16T17:13:27.935Z,96508.58
2018-10-16T17:15:56.280Z,96507.98
2018-10-16T17:18:24.727Z,96507.60
2018-10-16T17:20:53.155Z,96513.19
2018-10-16T17:23:21.678Z,96512.27
2018-10-16T17:25:50.462Z,96519.66
2018-10-16T17:28:18.584Z,96514.95
2018-10-16T17:30:47.045Z,96517.68
2018-10-16T17:33:15.426Z,96517.01
2018-10-16T17:35:43.626Z,96522.86
2018-10-16T17:38:12.051Z,96530.27
2018-10-16T17:40:40.432Z,96525.70
2018-10-16T17:43:08.820Z,96533.11
2018-10-16T17:45:37.260Z,96530.14
2018-10-16T17:48:05.892Z,96530.67
2018-10-16T17:50:34.132Z,96536.64
2018-10-16T17:53:02.455Z,96537.06
2018-10-16T17:55:30.838Z,96539.55
2018-10-16T17:57:59.161Z,96544.86
2018-10-16T18:00:27.559Z,96545.75
2018-10-16T18:02:55.945Z,96547.02
2018-10-16T18:05:24.393Z,96543.47
2018-10-16T18:07:52.827Z,96544.64
2018-10-16T18:10:21.121Z,96550.33
2018-10-16T18:12:49.523Z,96543.23
2018-10-16T18:15:17.944Z,96553.45
2018-10-16T18:17:46.406Z,96551.92
2018-10-16T18:20:15.925Z,96553.78
2018-10-16T18:22:44.564Z,96554.69
2018-10-16T18:25:13.093Z,96549.16
2018-10-16T18:27:42.257Z,96549.20
2018-10-16T18:30:11.155Z,96559.61
2018-10-16T18:32:39.907Z,96549.66
2018-10-16T18:35:08.209Z,96553.98
2018-10-16T18:37:36.754Z,96550.61
2018-10-16T18:40:06.695Z,96556.98
2018-10-16T18:42:35.738Z,96553.68
2018-10-16T18:45:05.273Z,96555.25
2018-10-16T18:47:33.582Z,96564.28
2018-10-16T18:50:01.972Z,96552.99
2018-10-16T18:52:30.557Z,96562.04
2018-10-16T18:54:58.865Z,96563.25
2018-10-16T18:57:27.200Z,96565.11
2018-10-16T18:59:55.747Z,96568.36
2018-10-16T19:02:24.620Z,96570.97
2018-10-16T19:04:52.972Z,96572.16
2018-10-16T19:07:21.405Z,96570.87
2018-10-16T19:09:49.706Z,96572.31
2018-10-16T19:12:18.194Z,96573.03
2018-10-16T19:14:46.766Z,96569.26
2018-10-16T19:17:15.230Z,96570.92
2018-10-16T19:19:43.624Z,96569.91
2018-10-16T19:22:12.126Z,96574.70
2018-10-16T19:24:40.662Z,96568.77
2018-10-16T19:27:09.649Z,96571.69
2018-10-16T19:29:38.079Z,96571.41
2018-10-16T19:32:06.741Z,96574.92
2018-10-16T19:34:35.751Z,96575.92
2018-10-16T19:37:04.346Z,96574.92
2018-10-16T19:39:33.322Z,96586.79
2018-10-16T19:42:01.778Z,96584.02
2018-10-16T19:44:30.290Z,96586.87
2018-10-16T19:46:58.666Z,96588.20
2018-10-16T19:49:27.311Z,96590.39
2018-10-16T19:51:55.789Z,96596.35
2018-10-16T19:54:24.243Z,96588.02
2018-10-16T19:56:53.915Z,96598.88
2018-10-16T19:59:22.248Z,96596.45
2018-10-16T20:01:51.821Z,96594.61
2018-10-16T20:04:20.419Z,96593.98
2018-10-16T20:06:48.863Z,96592.40
2018-10-16T20:09:17.420Z,96591.72
2018-10-16T20:11:45.845Z,96589.73
2018-10-16T20:14:15.026Z,96586.49
2018-10-16T20:16:43.406Z,96587.03
2018-10-16T20:19:11.784Z,96584.38
2018-10-16T20:21:40.270Z,96580.91
2018-10-16T20:24:08.629Z,96583.38
2018-10-16T20:26:37.215Z,96584.20
2018-10-16T20:29:05.847Z,96590.05
2018-10-16T20:31:34.182Z,96591.91
2018-10-16T20:34:02.569Z,96593.19
2018-10-16T20:36:31.026Z,96590.33
2018-10-16T20:38:59.385Z,96590.45
2018-10-16T20:41:27.807Z,96585.50
2018-10-16T20:43:56.370Z,96585.05
2018-10-16T20:46:24.766Z,96582.52
2018-10-16T20:48:53.225Z,96587.55
2018-10-16T20:51:21.637Z,96578.59
2018-10-16T20:53:50.852Z,96582.14
2018-10-16T20:56:19.246Z,96579.53
2018-10-16T20:58:47.849Z,96579.45
2018-10-16T21:01:20.189Z,96575.50
2018-10-16T21:03:49.067Z,96579.97
2018-10-16T21:06:17.759Z,96573.55
2018-10-16T21:08:45.918Z,96573.31
2018-10-16T21:11:14.331Z,96576.25
2018-10-16T21:13:42.673Z,96574.95
2018-10-16T21:16:11.055Z,96568.08
2018-10-16T21:18:39.941Z,96570.87
2018-10-16T21:21:08.371Z,96574.15
2018-10-16T21:23:36.669Z,96573.83
2018-10-16T21:26:05.321Z,96574.23
2018-10-16T21:28:33.757Z,96577.40
2018-10-16T21:31:02.107Z,96576.69
2018-10-16T21:33:30.570Z,96572.38
2018-10-16T21:35:59.177Z,96571.80
2018-10-16T21:38:27.585Z,96575.22
2018-10-16T21:40:56.052Z,96575.28
2018-10-16T21:43:24.601Z,96574.65
2018-10-16T21:45:52.891Z,96576.64
2018-10-16T21:48:21.301Z,96569.98
2018-10-16T21:50:49.595Z,96565.72
2018-10-16T21:53:17.950Z,96574.86
2018-10-16T21:55:46.469Z,96568.90
2018-10-16T21:58:14.801Z,96572.74
2018-10-16T22:00:48.417Z,96571.80
2018-10-16T22:03:16.796Z,96578.41
2018-10-16T22:05:45.077Z,96577.60
2018-10-16T22:08:14.352Z,96569.52
2018-10-16T22:10:42.560Z,96569.79
2018-10-16T22:13:11.801Z,96571.53
2018-10-16T22:15:40.137Z,96580.56
2018-10-16T22:18:08.553Z,96572.23
2018-10-16T22:20:36.885Z,96572.09
2018-10-16T22:23:05.677Z,96570.07
2018-10-16T22:25:33.913Z,96568.11
2018-10-16T22:28:02.309Z,96569.11
2018-10-16T22:30:30.707Z,96571.36
2018-10-16T22:32:59.056Z,96570.97
2018-10-16T22:35:27.369Z,96570.26
2018-10-16T22:37:55.741Z,96565.98
2018-10-16T22:40:24.095Z,96568.01
2018-10-16T22:42:52.517Z,96566.73
2018-10-16T22:45:20.801Z,96570.59
2018-10-16T22:47:49.089Z,96557.34
2018-10-16T22:50:17.397Z,96555.48
2018-10-16T22:52:45.821Z,96552.81
2018-10-16T22:55:14.200Z,96559.02
2018-10-16T22:57:42.529Z,96549.72
2018-10-16T23:00:16.177Z,96551.22
2018-10-16T23:02:45.382Z,96550.15
2018-10-16T23:05:13.817Z,96552.19
2018-10-16T23:07:42.669Z,96559.56
2018-10-16T23:10:11.253Z,96555.06
2018-10-16T23:12:39.565Z,96555.86
2018-10-16T23:15:09.043Z,96559.68
2018-10-16T23:17:37.332Z,96555.22
2018-10-16T23:20:06.997Z,96561.11
2018-10-16T23:22:35.548Z,96561.16
2018-10-16T23:25:03.981Z,96559.78
2018-10-16T23:27:32.412Z,96554.80
2018-10-16T23:30:00.816Z,96560.30
2018-10-16T23:32:29.201Z,96559.70
2018-10-16T23:34:57.537Z,96560.20
2018-10-16T23:37:26.117Z,96557.68
2018-10-16T23:39:54.501Z,96552.23
2018-10-16T23:42:22.937Z,96557.13
2018-10-16T23:44:51.282Z,96558.63
2018-10-16T23:47:19.764Z,96561.24
2018-10-16T23:49:48.116Z,96563.73
2018-10-16T23:52:16.448Z,96563.56
2018-10-16T23:54:44.747Z,96564.63
2018-10-16T23:57:13.144Z,96555.86
2018-10-16T23:59:41.554Z,96557.27
